Time;durP1;ratioP1;P1;durP2;ratioP2;P2;SDS_P1;SDS_P2;PMS_P1;PMS_P2;Temp;Humidity;BMP_temperature;BMP_pressure;BME280_temperature;BME280_humidity;BME280_pressure;Samples;Min_cycle;Max_cycle;Signal;HPM_P1;HPM_P2
2022/10/11 00:01:04;;;;;;;9.80;8.97;;;;;;;15.16;100.00;100207.63;5129842;28;20194;-59
2022/10/11 00:03:31;;;;;;;11.83;9.60;;;;;;;15.21;100.00;100199.63;5129624;28;20224;-58
2022/10/11 00:06:01;;;;;;;10.10;8.87;;;;;;;15.18;100.00;100205.81;5129809;28;20197;-58
2022/10/11 00:08:28;;;;;;;10.43;9.43;;;;;;;15.23;100.00;100196.06;5129475;28;20190;-58
2022/10/11 00:11:00;;;;;;;10.37;9.33;;;;;;;15.15;100.00;100200.69;5129848;28;20205;-58
2022/10/11 00:13:27;;;;;;;10.30;9.17;;;;;;;15.19;100.00;100194.47;5129912;28;20190;-58
2022/10/11 00:15:55;;;;;;;10.10;8.27;;;;;;;15.12;100.00;100190.34;5128827;28;20213;-57
2022/10/11 00:18:22;;;;;;;12.17;8.83;;;;;;;14.83;100.00;100177.47;5129304;28;20682;-57
2022/10/11 00:20:49;;;;;;;11.67;8.83;;;;;;;14.87;100.00;100197.38;5129613;28;20199;-57
2022/10/11 00:23:17;;;;;;;10.90;8.60;;;;;;;14.94;100.00;100191.03;5129272;28;20713;-52
2022/10/11 00:25:44;;;;;;;12.00;9.50;;;;;;;14.95;100.00;100197.09;5130340;27;20204;-57
2022/10/11 00:28:11;;;;;;;9.67;8.70;;;;;;;14.85;100.00;100197.44;5133213;27;20205;-58
2022/10/11 00:30:42;;;;;;;12.33;9.90;;;;;;;14.83;100.00;100198.38;5132957;27;20749;-57
2022/10/11 00:33:09;;;;;;;10.53;9.47;;;;;;;14.86;100.00;100203.50;5133149;27;20190;-52
2022/10/11 00:35:35;;;;;;;13.17;9.57;;;;;;;14.95;100.00;100199.72;5132798;27;20204;-53
2022/10/11 00:38:02;;;;;;;10.80;9.07;;;;;;;14.89;100.00;100177.28;5133231;27;20194;-53
2022/10/11 00:40:31;;;;;;;11.27;9.37;;;;;;;15.02;100.00;100182.88;5133052;27;20237;-52
2022/10/11 00:42:57;;;;;;;12.80;10.30;;;;;;;14.97;100.00;100183.06;5133049;27;20198;-52
2022/10/11 00:45:59;;;;;;;10.97;8.93;;;;;;;14.85;100.00;100176.53;5132935;27;20586;-53
2022/10/11 00:48:33;;;;;;;15.77;10.00;;;;;;;14.80;100.00;100172.34;5132861;27;20199;-52
2022/10/11 00:51:02;;;;;;;15.27;10.50;;;;;;;14.80;100.00;100182.81;5133095;27;20198;-52
2022/10/11 00:53:32;;;;;;;15.10;11.37;;;;;;;14.82;100.00;100175.78;5132780;27;20194;-52
2022/10/11 00:56:05;;;;;;;12.87;11.50;;;;;;;14.81;100.00;100176.69;5132992;27;20223;-52
2022/10/11 00:58:35;;;;;;;16.57;11.93;;;;;;;14.79;100.00;100171.50;5132461;27;20201;-52
2022/10/11 01:01:02;;;;;;;20.73;13.13;;;;;;;14.81;100.00;100161.00;5132561;27;20204;-58
2022/10/11 01:03:31;;;;;;;17.20;13.20;;;;;;;14.76;100.00;100161.19;5132393;27;20222;-58
2022/10/11 01:05:58;;;;;;;16.77;12.73;;;;;;;14.67;100.00;100158.03;5132876;27;20677;-58
2022/10/11 01:08:25;;;;;;;18.37;13.87;;;;;;;14.69;100.00;100161.44;5132421;27;20219;-53
2022/10/11 01:10:53;;;;;;;16.83;12.77;;;;;;;14.66;100.00;100161.56;5132255;27;20601;-53
2022/10/11 01:13:29;;;;;;;18.63;13.53;;;;;;;14.66;100.00;100169.41;5132177;27;20200;-53
2022/10/11 01:16:03;;;;;;;19.80;13.17;;;;;;;14.63;100.00;100169.50;5132579;27;20662;-53
2022/10/11 01:18:40;;;;;;;16.60;13.37;;;;;;;14.62;100.00;100165.19;5132597;27;20212;-52
2022/10/11 01:21:16;;;;;;;18.13;14.13;;;;;;;14.54;100.00;100160.22;5132173;27;20197;-53
2022/10/11 01:24:13;;;;;;;16.30;13.47;;;;;;;14.56;100.00;100162.78;5131917;27;20217;-53
2022/10/11 01:27:18;;;;;;;21.67;14.23;;;;;;;14.39;100.00;100139.81;5132091;27;20205;-52
2022/10/11 01:29:53;;;;;;;18.37;14.07;;;;;;;14.46;100.00;100159.63;5131747;27;20233;-51
2022/10/11 01:32:27;;;;;;;20.50;14.33;;;;;;;14.48;100.00;100157.81;5132254;27;20669;-52
2022/10/11 01:34:59;;;;;;;19.63;14.40;;;;;;;14.41;100.00;100148.50;5132218;27;20588;-53
2022/10/11 01:37:32;;;;;;;21.57;13.77;;;;;;;14.60;100.00;100148.69;5131106;27;20555;-53
2022/10/11 01:40:05;;;;;;;17.57;13.30;;;;;;;14.62;100.00;100144.28;5131978;27;20201;-52
2022/10/11 01:42:34;;;;;;;22.50;14.40;;;;;;;14.60;100.00;100148.69;5131814;27;20200;-52
2022/10/11 01:45:01;;;;;;;17.27;13.83;;;;;;;14.59;100.00;100137.38;5131914;27;20308;-52
2022/10/11 01:47:29;;;;;;;20.23;13.23;;;;;;;14.59;100.00;100139.16;5131928;27;20189;-53
2022/10/11 01:49:58;;;;;;;19.60;13.20;;;;;;;14.61;100.00;100139.94;5131747;27;20201;-53
2022/10/11 01:52:27;;;;;;;19.10;13.07;;;;;;;14.58;100.00;100130.47;5131366;27;20194;-52
2022/10/11 01:55:12;;;;;;;15.43;13.40;;;;;;;14.55;100.00;100134.97;5131389;27;20196;-53
2022/10/11 01:58:07;;;;;;;16.60;13.50;;;;;;;14.54;100.00;100139.31;5131468;27;20357;-53
2022/10/11 02:00:45;;;;;;;16.83;13.23;;;;;;;14.52;100.00;100135.91;5131286;27;20243;-53
2022/10/11 02:03:28;;;;;;;21.53;12.97;;;;;;;14.48;100.00;100135.16;5131085;27;20194;-58
2022/10/11 02:06:00;;;;;;;16.30;13.20;;;;;;;14.49;100.00;100139.47;5131321;27;20214;-58
2022/10/11 02:08:37;;;;;;;15.60;13.43;;;;;;;14.43;100.00;100126.66;5131447;27;20243;-58
2022/10/11 02:11:09;;;;;;;22.37;13.60;;;;;;;14.58;100.00;100124.38;5131415;27;20193;-53
2022/10/11 02:13:41;;;;;;;20.63;12.47;;;;;;;14.46;100.00;100126.50;5131118;27;20192;-58
2022/10/11 02:16:13;;;;;;;20.20;13.57;;;;;;;14.46;100.00;100130.88;5131463;27;20194;-57
2022/10/11 02:18:46;;;;;;;17.37;13.07;;;;;;;14.39;100.00;100131.97;5131154;27;20204;-58
2022/10/11 02:21:18;;;;;;;14.20;12.27;;;;;;;14.37;100.00;100129.41;5131055;27;20220;-58
2022/10/11 02:23:50;;;;;;;25.33;13.47;;;;;;;14.38;100.00;100138.09;5131024;27;20241;-58
2022/10/11 02:26:19;;;;;;;17.87;12.23;;;;;;;14.30;100.00;100140.13;5130592;27;20204;-57
2022/10/11 02:28:49;;;;;;;15.47;12.00;;;;;;;14.34;100.00;100142.56;5130777;27;20234;-57
2022/10/11 02:31:17;;;;;;;15.33;11.43;;;;;;;14.34;100.00;100144.34;5130582;27;20235;-57
2022/10/11 02:33:53;;;;;;;16.53;11.40;;;;;;;14.15;100.00;100115.38;5131001;27;20599;-52
2022/10/11 02:36:35;;;;;;;16.73;11.53;;;;;;;14.27;100.00;100135.00;5130652;27;20288;-52
2022/10/11 02:39:11;;;;;;;20.73;12.17;;;;;;;14.39;100.00;100140.69;5130941;27;20202;-58
2022/10/11 02:41:42;;;;;;;18.67;12.33;;;;;;;14.42;100.00;100145.84;5131143;27;20194;-58
2022/10/11 02:44:13;;;;;;;19.27;12.97;;;;;;;14.35;100.00;100133.84;5130849;27;20290;-53
2022/10/11 02:46:43;;;;;;;18.87;11.70;;;;;;;14.42;100.00;100132.78;5130657;27;20205;-52
2022/10/11 02:49:12;;;;;;;16.10;10.97;;;;;;;14.48;100.00;100135.16;5129552;27;20208;-52
2022/10/11 02:51:39;;;;;;;14.73;11.33;;;;;;;14.40;100.00;100116.28;5129978;27;20662;-52
2022/10/11 02:54:06;;;;;;;12.53;11.07;;;;;;;14.51;100.00;100121.16;5130305;27;20190;-52
2022/10/11 02:56:33;;;;;;;12.47;11.07;;;;;;;14.51;100.00;100118.53;5127171;27;20198;-52
2022/10/11 02:59:00;;;;;;;19.70;11.37;;;;;;;14.57;100.00;100118.31;5130485;27;20201;-52
2022/10/11 03:01:27;;;;;;;18.17;11.30;;;;;;;14.63;100.00;100123.31;5129121;27;20197;-52
2022/10/11 03:03:54;;;;;;;14.40;9.97;;;;;;;14.65;100.00;100118.91;5130138;27;20229;-51
2022/10/11 03:06:22;;;;;;;15.70;11.53;;;;;;;14.60;100.00;100126.03;5130149;27;20194;-52
2022/10/11 03:08:49;;;;;;;18.50;10.53;;;;;;;14.68;100.00;100123.13;5130294;27;20200;-52
2022/10/11 03:11:16;;;;;;;14.13;11.13;;;;;;;14.67;100.00;100131.91;5130181;27;20204;-52
2022/10/11 03:13:43;;;;;;;16.90;10.47;;;;;;;14.64;100.00;100129.41;5130146;27;20571;-52
2022/10/11 03:16:10;;;;;;;16.37;11.07;;;;;;;14.56;100.00;100132.25;5130206;27;20197;-53
2022/10/11 03:18:37;;;;;;;17.70;11.27;;;;;;;14.56;100.00;100121.00;5130252;27;20190;-52
2022/10/11 03:21:04;;;;;;;20.97;12.93;;;;;;;14.64;100.00;100126.78;5129783;28;20667;-58
2022/10/11 03:23:32;;;;;;;12.13;10.77;;;;;;;14.61;100.00;100124.28;5128921;28;20580;-52
2022/10/11 03:25:59;;;;;;;21.03;12.20;;;;;;;14.60;100.00;100118.19;5128860;28;20276;-52
2022/10/11 03:28:26;;;;;;;17.33;11.70;;;;;;;14.58;100.00;100125.22;5128466;28;20285;-57
2022/10/11 03:30:53;;;;;;;12.03;10.63;;;;;;;14.64;100.00;100121.56;5128664;28;20194;-57
2022/10/11 03:33:20;;;;;;;14.67;10.77;;;;;;;14.53;100.00;100122.81;5128764;28;20202;-58
2022/10/11 03:35:48;;;;;;;17.30;11.20;;;;;;;14.41;100.00;100104.94;5128566;28;20190;-57
2022/10/11 03:38:18;;;;;;;12.03;10.60;;;;;;;14.55;100.00;100111.44;5128253;28;20636;-53
2022/10/11 03:40:46;;;;;;;13.87;11.00;;;;;;;14.48;100.00;100114.25;5130006;28;20194;-51
2022/10/11 03:43:13;;;;;;;15.30;10.60;;;;;;;14.53;100.00;100117.56;5129682;28;20197;-52
2022/10/11 03:45:41;;;;;;;16.00;11.23;;;;;;;14.57;100.00;100112.22;5130165;28;20225;-51
2022/10/11 03:48:08;;;;;;;14.70;10.60;;;;;;;14.62;100.00;100118.16;5130061;28;20190;-53
2022/10/11 03:50:36;;;;;;;12.33;10.53;;;;;;;14.59;100.00;100118.25;5128325;28;20204;-52
2022/10/11 03:53:03;;;;;;;13.17;10.23;;;;;;;14.57;100.00;100117.44;5129520;28;20648;-52
2022/10/11 03:55:30;;;;;;;12.10;10.80;;;;;;;14.49;100.00;100113.34;5129222;28;20206;-52
2022/10/11 03:57:58;;;;;;;14.73;10.37;;;;;;;14.46;100.00;100102.16;5129397;28;20190;-52
2022/10/11 04:00:25;;;;;;;12.37;9.97;;;;;;;14.57;100.00;100107.00;5130006;27;20208;-52
2022/10/11 04:02:52;;;;;;;12.83;10.37;;;;;;;14.62;100.00;100107.69;5133347;27;20205;-52
2022/10/11 04:05:19;;;;;;;16.87;10.17;;;;;;;14.70;100.00;100100.44;5129749;27;20220;-51
2022/10/11 04:07:46;;;;;;;11.47;10.27;;;;;;;14.63;100.00;100091.13;5133212;27;20194;-59
2022/10/11 04:10:13;;;;;;;15.97;10.47;;;;;;;14.72;100.00;100101.22;5133161;27;20186;-59
2022/10/11 04:12:40;;;;;;;13.97;10.67;;;;;;;14.70;100.00;100097.81;5133367;27;20198;-59
2022/10/11 04:15:11;;;;;;;14.43;9.17;;;;;;;14.69;100.00;100101.34;5133659;27;20691;-60
2022/10/11 04:17:38;;;;;;;12.77;9.87;;;;;;;14.72;100.00;100107.31;5133336;27;20194;-58
2022/10/11 04:20:07;;;;;;;11.90;9.50;;;;;;;14.67;100.00;100103.19;5133538;27;20673;-59
2022/10/11 04:22:34;;;;;;;13.50;10.17;;;;;;;14.67;100.00;100092.72;5133108;27;20284;-59
2022/10/11 04:25:01;;;;;;;12.37;9.90;;;;;;;14.70;100.00;100098.66;5133128;27;20244;-59
2022/10/11 04:27:28;;;;;;;12.37;10.33;;;;;;;14.63;100.00;100094.59;5132502;27;20193;-59
2022/10/11 04:29:55;;;;;;;13.80;10.07;;;;;;;14.60;100.00;100102.53;5132365;27;20230;-59
2022/10/11 04:32:23;;;;;;;13.27;9.80;;;;;;;14.55;100.00;100094.00;5133223;27;20212;-59
2022/10/11 04:34:50;;;;;;;14.97;10.37;;;;;;;14.55;100.00;100099.25;5133122;27;20194;-53
2022/10/11 04:37:18;;;;;;;12.23;10.03;;;;;;;14.56;100.00;100105.31;5132589;27;20201;-52
2022/10/11 04:39:45;;;;;;;13.77;10.53;;;;;;;14.55;100.00;100108.84;5133335;27;20216;-53
2022/10/11 04:42:12;;;;;;;12.63;9.70;;;;;;;14.52;100.00;100109.78;5132149;27;20205;-51
2022/10/11 04:44:39;;;;;;;12.43;9.80;;;;;;;14.51;100.00;100116.78;5132362;27;20232;-51
2022/10/11 04:47:06;;;;;;;15.57;10.13;;;;;;;14.56;100.00;100108.75;5133013;27;20220;-59
2022/10/11 04:49:34;;;;;;;13.03;10.03;;;;;;;14.53;100.00;100112.34;5132621;27;20190;-58
2022/10/11 04:52:01;;;;;;;15.60;9.47;;;;;;;14.57;100.00;100112.22;5132085;27;20221;-58
2022/10/11 04:54:28;;;;;;;17.43;9.90;;;;;;;14.65;100.00;100110.22;5132041;27;20196;-59
2022/10/11 04:56:55;;;;;;;21.20;10.97;;;;;;;14.67;100.00;100108.41;5129766;27;20236;-59
2022/10/11 04:59:22;;;;;;;13.17;10.40;;;;;;;14.69;100.00;100104.81;5132479;27;20205;-59
2022/10/11 05:01:49;;;;;;;12.07;9.67;;;;;;;14.72;100.00;100109.06;5132429;27;20202;-59
2022/10/11 05:04:16;;;;;;;16.30;9.67;;;;;;;14.77;100.00;100115.84;5132375;27;20639;-60
2022/10/11 05:06:44;;;;;;;12.43;10.17;;;;;;;14.74;100.00;100113.34;5132598;27;20198;-60
2022/10/11 05:09:11;;;;;;;16.17;11.87;;;;;;;14.78;100.00;100114.94;5132472;27;20293;-58
2022/10/11 05:11:38;;;;;;;20.47;12.60;;;;;;;14.83;100.00;100110.38;5132378;27;20190;-52
2022/10/11 05:14:05;;;;;;;16.37;11.03;;;;;;;14.87;100.00;100119.81;5132191;27;20198;-54
2022/10/11 05:16:32;;;;;;;18.43;12.20;;;;;;;14.79;100.00;100095.72;5132099;27;20190;-53
2022/10/11 05:18:59;;;;;;;23.37;11.40;;;;;;;15.03;100.00;100117.47;5132330;27;20194;-52
2022/10/11 05:21:28;;;;;;;21.17;11.17;;;;;;;15.03;100.00;100114.00;5131975;27;20189;-52
2022/10/11 05:23:57;;;;;;;17.43;11.87;;;;;;;15.12;100.00;100111.06;5132112;27;20194;-52
2022/10/11 05:26:26;;;;;;;21.43;10.70;;;;;;;15.05;100.00;100104.34;5131854;27;20224;-53
2022/10/11 05:28:53;;;;;;;15.17;10.97;;;;;;;15.02;100.00;100109.69;5131706;27;20279;-53
2022/10/11 05:31:21;;;;;;;15.83;10.80;;;;;;;14.98;100.00;100110.72;5131829;27;20190;-52
2022/10/11 05:33:48;;;;;;;12.73;10.90;;;;;;;14.97;100.00;100104.66;5131964;27;20198;-52
2022/10/11 05:36:15;;;;;;;18.47;10.83;;;;;;;14.86;100.00;100083.28;5132110;27;20198;-52
2022/10/11 05:38:42;;;;;;;15.27;11.23;;;;;;;14.90;100.00;100084.84;5131993;27;20221;-52
2022/10/11 05:41:13;;;;;;;14.27;10.97;;;;;;;15.09;100.00;100113.78;5131846;27;20581;-51
2022/10/11 05:43:39;;;;;;;12.47;9.70;;;;;;;15.10;100.00;100107.66;5131686;27;20600;-52
2022/10/11 05:46:06;;;;;;;15.30;10.80;;;;;;;15.06;100.00;100112.16;5131603;27;20217;-52
2022/10/11 05:48:33;;;;;;;21.13;10.20;;;;;;;15.00;100.00;100112.38;5131410;27;20198;-52
2022/10/11 05:51:01;;;;;;;13.33;9.63;;;;;;;15.03;100.00;100117.47;5131779;27;20207;-53
2022/10/11 05:53:29;;;;;;;18.87;12.33;;;;;;;15.08;100.00;100126.00;5131340;27;20194;-52
2022/10/11 05:55:56;;;;;;;15.57;9.20;;;;;;;15.10;100.00;100125.97;5131532;27;20284;-53
2022/10/11 05:58:25;;;;;;;15.33;8.60;;;;;;;15.07;100.00;100129.53;5131214;27;20200;-51
2022/10/11 06:00:52;;;;;;;13.40;9.63;;;;;;;15.08;100.00;100122.56;5131248;27;20204;-52
2022/10/11 06:03:19;;;;;;;13.37;8.23;;;;;;;15.12;100.00;100129.38;5131326;27;20201;-51
2022/10/11 06:05:47;;;;;;;11.97;9.20;;;;;;;15.14;100.00;100128.38;5131183;27;20224;-51
2022/10/11 06:08:15;;;;;;;17.60;9.60;;;;;;;15.16;100.00;100137.03;5131189;27;20198;-52
2022/10/11 06:10:43;;;;;;;16.60;9.50;;;;;;;15.17;100.00;100145.72;5131518;27;20206;-52
2022/10/11 06:13:10;;;;;;;11.50;9.77;;;;;;;15.13;100.00;100141.50;5131025;27;20198;-51
2022/10/11 06:15:40;;;;;;;13.80;8.73;;;;;;;15.14;100.00;100141.47;5130930;27;20201;-52
2022/10/11 06:18:07;;;;;;;13.60;9.70;;;;;;;15.02;100.00;100136.69;5131089;27;20198;-52
2022/10/11 06:20:34;;;;;;;16.90;9.47;;;;;;;15.12;100.00;100139.84;5130431;27;20288;-53
2022/10/11 06:23:01;;;;;;;13.20;9.67;;;;;;;15.20;100.00;100132.56;5130876;27;20194;-52
2022/10/11 06:25:28;;;;;;;13.07;9.77;;;;;;;15.09;100.00;100143.41;5130532;27;20221;-52
2022/10/11 06:27:55;;;;;;;15.40;9.67;;;;;;;15.18;100.00;100137.84;5130660;27;20201;-52
2022/10/11 06:30:23;;;;;;;13.00;10.63;;;;;;;15.14;100.00;100141.47;5129989;27;20226;-53
2022/10/11 06:32:51;;;;;;;13.70;10.07;;;;;;;15.18;100.00;100150.06;5130352;28;20193;-53
2022/10/11 06:35:18;;;;;;;11.70;9.23;;;;;;;15.11;100.00;100146.84;5129979;28;20272;-53
2022/10/11 06:37:45;;;;;;;18.03;11.27;;;;;;;15.19;100.00;100146.53;5130014;28;20202;-52
2022/10/11 06:40:12;;;;;;;13.40;9.40;;;;;;;15.24;100.00;100148.03;5129904;28;20206;-52
2022/10/11 06:42:39;;;;;;;14.03;9.73;;;;;;;15.20;100.00;100154.31;5129735;28;20198;-52
2022/10/11 06:45:07;;;;;;;12.40;9.20;;;;;;;15.14;100.00;100145.84;5130133;28;20243;-53
2022/10/11 06:47:34;;;;;;;12.10;9.20;;;;;;;15.21;100.00;100152.56;5129567;28;20288;-52
2022/10/11 06:50:02;;;;;;;12.37;10.00;;;;;;;15.23;100.00;100150.75;5129601;28;20204;-53
2022/10/11 06:52:29;;;;;;;11.03;9.17;;;;;;;15.34;100.00;100155.56;5129590;28;20691;-52
2022/10/11 06:54:56;;;;;;;18.17;9.30;;;;;;;15.29;100.00;100154.88;5129512;28;20297;-52
2022/10/11 06:57:23;;;;;;;12.97;9.40;;;;;;;15.23;100.00;100156.84;5129634;28;20204;-52
2022/10/11 06:59:49;;;;;;;18.47;11.43;;;;;;;15.21;100.00;100158.66;5130019;28;20585;-50
2022/10/11 07:02:17;;;;;;;19.03;10.37;;;;;;;15.18;100.00;100143.06;5129623;28;20670;-53
2022/10/11 07:04:44;;;;;;;17.27;10.50;;;;;;;15.30;100.00;100153.97;5129631;28;20220;-52
2022/10/11 07:07:14;;;;;;;19.20;10.73;;;;;;;15.30;100.00;100139.13;5129627;28;20194;-51
2022/10/11 07:09:41;;;;;;;15.17;11.03;;;;;;;15.37;100.00;100147.59;5129288;28;20223;-52
2022/10/11 07:12:09;;;;;;;15.03;11.13;;;;;;;15.23;100.00;100129.81;5129614;28;20189;-51
2022/10/11 07:14:36;;;;;;;16.70;11.83;;;;;;;15.35;100.00;100147.63;5129313;28;20229;-52
2022/10/11 07:17:03;;;;;;;16.00;11.30;;;;;;;15.35;100.00;100150.25;5129091;28;20190;-51
2022/10/11 07:19:30;;;;;;;22.87;12.93;;;;;;;15.39;100.00;100149.25;5129140;28;20197;-51
2022/10/11 07:21:57;;;;;;;17.60;12.20;;;;;;;15.50;100.00;100149.69;5129496;28;20204;-59
2022/10/11 07:24:25;;;;;;;16.27;12.20;;;;;;;15.63;100.00;100147.47;5128968;28;20197;-59
2022/10/11 07:26:52;;;;;;;20.60;11.73;;;;;;;15.67;100.00;100145.59;5129535;28;20233;-59
2022/10/11 07:29:19;;;;;;;15.50;10.83;;;;;;;15.68;100.00;100148.16;4471078;28;18585451;-60
2022/10/11 07:31:46;;;;;;;18.67;11.77;;;;;;;15.51;100.00;100143.53;5128397;28;20198;-59
2022/10/11 07:34:13;;;;;;;11.63;9.73;;;;;;;15.51;100.00;100145.28;5128430;28;20198;-60
2022/10/11 07:36:40;;;;;;;16.37;10.87;;;;;;;15.55;100.00;100139.94;5130738;27;20240;-59
2022/10/11 07:39:07;;;;;;;13.70;10.60;;;;;;;15.62;100.00;100143.16;5132827;27;20284;-59
2022/10/11 07:41:37;;;;;;;14.77;9.97;;;;;;;15.68;100.00;100142.91;5133584;27;20756;-60
2022/10/11 07:44:04;;;;;;;14.60;10.10;;;;;;;15.80;100.00;100147.63;5134045;27;20197;-58
2022/10/11 07:46:31;;;;;;;17.03;10.67;;;;;;;15.90;100.00;100145.53;5133760;27;20221;-60
2022/10/11 07:48:58;;;;;;;13.50;9.97;;;;;;;16.02;100.00;100146.78;5133947;27;20206;-60
2022/10/11 07:51:26;;;;;;;16.83;9.20;;;;;;;16.12;100.00;100153.34;5133899;27;20202;-60
2022/10/11 07:53:55;;;;;;;15.23;8.57;;;;;;;16.13;100.00;100149.81;5133839;27;20194;-59
2022/10/11 07:56:24;;;;;;;13.03;8.30;;;;;;;16.16;100.00;100144.44;5133736;27;20194;-58
2022/10/11 07:58:56;;;;;;;13.30;8.43;;;;;;;16.20;100.00;100140.78;5133838;27;20584;-51
2022/10/11 08:01:23;;;;;;;24.90;12.67;;;;;;;16.29;100.00;100137.78;5133536;27;20233;-51
2022/10/11 08:03:51;;;;;;;13.63;8.57;;;;;;;16.44;100.00;100142.38;5134055;27;20194;-51
2022/10/11 08:06:20;;;;;;;15.93;8.03;;;;;;;16.51;100.00;100135.09;5133505;27;20704;-51
2022/10/11 08:08:47;;;;;;;9.83;7.37;;;;;;;16.76;100.00;100135.75;5133522;27;20295;-60
2022/10/11 08:11:20;;;;;;;11.60;7.20;;;;;;;16.96;100.00;100124.38;5133606;27;20204;-59
2022/10/11 08:13:47;;;;;;;8.10;6.23;;;;;;;17.23;100.00;100132.75;5133548;27;20190;-52
2022/10/11 08:16:16;;;;;;;9.37;6.87;;;;;;;17.29;100.00;100133.31;5133263;27;20281;-52
2022/10/11 08:18:43;;;;;;;17.73;7.40;;;;;;;17.37;100.00;100128.59;5133441;27;20194;-59
2022/10/11 08:21:12;;;;;;;9.53;6.77;;;;;;;17.17;100.00;100117.28;5133395;27;20204;-60
2022/10/11 08:23:39;;;;;;;15.83;7.00;;;;;;;17.30;100.00;100137.66;5133183;27;20669;-61
2022/10/11 08:26:06;;;;;;;9.23;6.10;;;;;;;17.35;100.00;100134.81;5133343;27;20645;-60
2022/10/11 08:28:33;;;;;;;9.97;8.97;;;;;;;17.38;100.00;100129.44;5133103;27;20673;-58
2022/10/11 08:31:02;;;;;;;26.67;7.13;;;;;;;17.52;100.00;100128.75;5133224;27;20205;-51
2022/10/11 08:33:30;;;;;;;15.73;7.50;;;;;;;17.48;100.00;100132.47;5133180;27;20216;-52
2022/10/11 08:35:57;;;;;;;8.73;7.13;;;;;;;17.46;100.00;100134.31;5133368;27;20726;-51
2022/10/11 08:38:24;;;;;;;9.13;6.37;;;;;;;17.35;100.00;100137.44;5132973;27;20659;-51
2022/10/11 08:40:54;;;;;;;8.87;7.73;;;;;;;17.25;100.00;100138.78;5132958;27;20204;-51
2022/10/11 08:43:32;;;;;;;8.30;7.20;;;;;;;17.26;100.00;100137.88;5132623;27;20639;-51
2022/10/11 08:46:02;;;;;;;9.00;7.57;;;;;;;17.26;100.00;100133.47;5132929;27;20221;-52
2022/10/11 08:48:35;;;;;;;8.93;6.83;;;;;;;17.27;100.00;100140.41;5132524;27;20198;-52
2022/10/11 08:51:13;;;;;;;12.00;7.90;;;;;;;17.31;100.00;100126.22;5132932;27;20198;-59
2022/10/11 08:53:45;;;;;;;8.57;7.07;;;;;;;17.42;100.00;100123.09;5132433;27;20236;-52
2022/10/11 08:56:14;;;;;;;15.27;7.07;;;;;;;17.53;100.00;100122.59;5132919;27;20186;-52
2022/10/11 08:58:47;;;;;;;10.67;7.27;;;;;;;17.60;100.00;100119.63;5132589;27;20290;-58
2022/10/11 09:01:18;;;;;;;8.77;7.10;;;;;;;17.68;100.00;100111.41;5132668;27;20670;-59
2022/10/11 09:03:48;;;;;;;9.30;7.27;;;;;;;17.83;100.00;100125.56;5132483;27;20202;-59
2022/10/11 09:06:28;;;;;;;11.97;9.70;;;;;;;17.72;100.00;100124.28;5132346;27;20218;-59
2022/10/11 09:09:13;;;;;;;9.93;7.50;;;;;;;17.79;100.00;100132.72;5132283;27;20211;-60
2022/10/11 09:11:57;;;;;;;14.17;8.87;;;;;;;17.82;100.00;100123.88;5132188;27;20213;-59
2022/10/11 09:14:48;;;;;;;10.63;8.10;;;;;;;17.88;100.00;100123.56;5131997;27;20190;-59
2022/10/11 09:17:30;;;;;;;11.93;8.53;;;;;;;17.88;100.00;100118.28;5132376;27;20576;-59
2022/10/11 09:20:22;;;;;;;13.07;9.10;;;;;;;17.87;100.00;100112.19;5132277;27;20216;-59
2022/10/11 09:22:56;;;;;;;16.57;9.13;;;;;;;17.98;100.00;100109.88;5132120;27;20190;-51
2022/10/11 09:25:28;;;;;;;10.20;9.20;;;;;;;17.98;100.00;100120.38;5132062;27;20661;-58
2022/10/11 09:28:05;;;;;;;14.00;9.33;;;;;;;17.82;100.00;100105.47;5132506;27;20198;-59
2022/10/11 09:30:33;;;;;;;10.20;9.10;;;;;;;17.89;100.00;100118.22;5131682;27;20241;-58
2022/10/11 09:33:12;;;;;;;11.53;9.20;;;;;;;17.97;100.00;100118.69;5131931;27;20198;-59
2022/10/11 09:35:44;;;;;;;19.33;13.30;;;;;;;18.09;100.00;100111.97;5131449;27;20194;-52
2022/10/11 09:38:18;;;;;;;15.77;10.40;;;;;;;18.26;100.00;100114.63;5131724;27;20193;-53
2022/10/11 09:40:56;;;;;;;14.73;9.67;;;;;;;18.52;99.97;100110.63;5131542;27;20193;-52
2022/10/11 09:43:22;;;;;;;11.53;10.27;;;;;;;18.56;99.71;100117.44;5131422;27;20204;-51
2022/10/11 09:45:49;;;;;;;13.50;10.05;;;;;;;18.62;98.78;100109.28;5131443;27;20198;-51
2022/10/11 09:48:22;;;;;;;12.48;10.90;;;;;;;18.74;97.70;100116.50;5131879;27;20215;-52
2022/10/11 09:50:54;;;;;;;14.55;10.35;;;;;;;18.61;99.03;100110.22;5131598;27;20594;-52
2022/10/11 09:53:41;;;;;;;12.82;9.82;;;;;;;18.70;98.21;100106.25;5130955;27;20186;-51
2022/10/11 09:56:09;;;;;;;13.93;10.95;;;;;;;18.91;96.87;100109.50;5131682;27;20190;-51
2022/10/11 09:58:37;;;;;;;16.92;12.60;;;;;;;19.00;95.69;100098.47;5130719;27;20319;-52
2022/10/11 10:01:07;;;;;;;13.38;11.80;;;;;;;18.80;96.31;100076.75;5131586;27;20190;-58
2022/10/11 10:03:35;;;;;;;17.15;12.02;;;;;;;18.92;95.75;100100.69;5131227;27;20204;-59
2022/10/11 10:06:07;;;;;;;13.43;12.15;;;;;;;19.01;95.58;100092.28;5131332;27;20213;-59
2022/10/11 10:08:35;;;;;;;18.75;14.73;;;;;;;18.93;95.14;100089.22;5131202;27;20202;-59
2022/10/11 10:11:03;;;;;;;14.48;13.00;;;;;;;18.84;96.50;100075.66;5130990;27;20201;-60
2022/10/11 10:13:40;;;;;;;19.38;13.52;;;;;;;18.97;95.19;100078.44;5131390;27;20204;-51
2022/10/11 10:16:10;;;;;;;18.77;12.65;;;;;;;19.06;93.93;100074.47;5131451;27;20194;-52
2022/10/11 10:18:42;;;;;;;14.35;12.02;;;;;;;19.32;93.51;100075.66;5131014;27;20193;-52
2022/10/11 10:21:14;;;;;;;14.30;11.75;;;;;;;19.35;92.46;100067.59;5131119;27;20194;-52
2022/10/11 10:23:43;;;;;;;14.55;12.32;;;;;;;19.28;92.45;100068.88;5130754;27;20198;-53
2022/10/11 10:26:15;;;;;;;16.92;12.48;;;;;;;19.19;92.08;100028.97;5131176;27;20613;-52
2022/10/11 10:28:59;;;;;;;18.00;12.20;;;;;;;19.50;91.68;100070.25;5128764;27;20222;-52
2022/10/11 10:31:33;;;;;;;18.73;13.82;;;;;;;19.51;92.27;100066.69;5130880;27;20692;-52
2022/10/11 10:34:01;;;;;;;15.70;13.60;;;;;;;19.60;89.44;100065.31;5130103;27;20198;-52
2022/10/11 10:36:32;;;;;;;18.13;14.52;;;;;;;19.52;88.88;100065.75;5130726;27;20194;-52
2022/10/11 10:39:05;;;;;;;16.63;15.00;;;;;;;19.35;90.44;100060.53;5130936;27;20197;-53
2022/10/11 10:41:32;;;;;;;16.10;14.18;;;;;;;19.40;90.58;100053.25;5130464;27;20198;-59
2022/10/11 10:44:01;;;;;;;18.27;15.65;;;;;;;19.60;89.23;100043.38;5131034;27;20194;-59
2022/10/11 10:46:43;;;;;;;17.80;13.90;;;;;;;19.74;88.67;100046.09;5130193;27;20224;-59
2022/10/11 10:49:14;;;;;;;19.88;14.55;;;;;;;19.64;88.17;100037.84;5130832;27;20677;-60
2022/10/11 10:51:56;;;;;;;18.27;15.18;;;;;;;19.53;89.19;100053.41;5130424;27;20418;-59
2022/10/11 10:54:35;;;;;;;20.38;15.88;;;;;;;19.49;89.23;100042.22;5130208;27;20215;-60
2022/10/11 10:57:10;;;;;;;18.15;14.43;;;;;;;19.65;88.77;100033.44;5130690;27;20557;-52
2022/10/11 11:00:01;;;;;;;18.65;14.98;;;;;;;19.49;87.76;100044.84;5130031;27;20270;-54
2022/10/11 11:02:32;;;;;;;20.60;13.82;;;;;;;19.54;87.63;100045.44;5130157;27;20202;-53
2022/10/11 11:05:07;;;;;;;19.33;16.30;;;;;;;19.66;87.54;100048.28;5130686;27;20745;-52
2022/10/11 11:07:43;;;;;;;20.50;15.82;;;;;;;19.70;87.74;100029.59;5130308;27;20226;-52
2022/10/11 11:10:15;;;;;;;20.88;16.10;;;;;;;19.82;86.80;100031.53;5130343;27;20665;-59
2022/10/11 11:12:48;;;;;;;22.58;16.65;;;;;;;19.80;86.81;100027.28;5130435;27;20742;-59
2022/10/11 11:15:23;;;;;;;24.23;14.73;;;;;;;19.75;87.17;100029.34;5130165;27;20700;-60
2022/10/11 11:18:15;;;;;;;23.83;17.25;;;;;;;19.81;87.38;100018.44;5130077;27;20197;-60
2022/10/11 11:21:00;;;;;;;19.13;15.55;;;;;;;19.88;86.85;100011.84;5130151;27;20204;-59